Burlington, Kentucky
Current Conditions -  °F | °C
As of 10:52 PM on Thursday 18 Dec 2014 (Local Time) from KCVG Reporting Station
Overcast Overcast  
Wind Chill: 29°   Ceiling: 6000
Heat Index: 29°   Visibility: 9mi
Dew Point: 20°   Wind: 3mph
Humidity: 69%   Direction: 340°NNW
Pressure: 30.24"   Gusts: NA
Location:  39.03°N, 84.72°W
Report Text: KCVG 190352Z 34003KT 9SM SCT019 OVC060 M02/M07 A3024 RMK AO2 SLP246 SCT V BKN T10171067
Loading
Personal Weather Stations






























Interactive Weather Map New forecast layout! Learn more

10-Day Weather Forecast

Advertisements
Track Severe Weather on mobile